createdAt,value
2019-03-19T00:00:21.903Z,55.30
2019-03-19T00:01:02.637Z,54.30
2019-03-19T00:01:41.129Z,54.10
2019-03-19T00:02:19.600Z,53.80
2019-03-19T00:02:58.672Z,53.60
2019-03-19T00:03:37.178Z,53.50
2019-03-19T00:04:16.454Z,53.40
2019-03-19T00:04:54.994Z,53.20
2019-03-19T00:05:33.503Z,53.30
2019-03-19T00:06:12.623Z,53.80
2019-03-19T00:06:51.602Z,53.90
2019-03-19T00:07:30.646Z,53.30
2019-03-19T00:08:09.177Z,53.00
2019-03-19T00:08:47.704Z,52.90
2019-03-19T00:09:26.162Z,52.80
2019-03-19T00:10:04.696Z,52.70
2019-03-19T00:10:45.973Z,52.60
2019-03-19T00:11:24.467Z,52.50
2019-03-19T00:12:03.710Z,52.40
2019-03-19T00:12:42.531Z,52.30
2019-03-19T00:13:21.558Z,52.20
2019-03-19T00:14:00.690Z,52.30
2019-03-19T00:14:40.555Z,52.50
2019-03-19T00:15:19.675Z,52.50
2019-03-19T00:15:58.747Z,52.40
2019-03-19T00:16:40.373Z,52.50
2019-03-19T00:17:20.456Z,52.60
2019-03-19T00:18:00.174Z,52.60
2019-03-19T00:18:38.636Z,52.60
2019-03-19T00:19:17.210Z,52.60
2019-03-19T00:19:55.668Z,52.70
2019-03-19T00:20:34.247Z,52.80
2019-03-19T00:21:13.406Z,52.90
2019-03-19T00:21:53.062Z,53.00
2019-03-19T00:22:32.594Z,53.10
2019-03-19T00:23:11.542Z,53.30
2019-03-19T00:23:50.634Z,53.40
2019-03-19T00:24:32.607Z,53.30
2019-03-19T00:25:11.418Z,53.40
2019-03-19T00:25:52.945Z,53.60
2019-03-19T00:26:31.401Z,53.70
2019-03-19T00:27:10.652Z,53.90
2019-03-19T00:27:49.111Z,54.00
2019-03-19T00:28:27.534Z,54.20
2019-03-19T00:29:06.113Z,54.30
2019-03-19T00:29:44.618Z,54.40
2019-03-19T00:30:41.311Z,54.70
2019-03-19T00:31:20.319Z,54.70
2019-03-19T00:31:58.839Z,54.90
2019-03-19T00:32:37.274Z,55.00
2019-03-19T00:33:15.927Z,55.30
2019-03-19T00:33:54.682Z,55.40
2019-03-19T00:34:33.347Z,55.70
2019-03-19T00:35:12.405Z,56.00
2019-03-19T00:35:51.566Z,56.20
2019-03-19T00:36:30.539Z,56.40
2019-03-19T00:37:09.473Z,56.40
2019-03-19T00:37:48.630Z,56.30
2019-03-19T00:38:27.054Z,56.70
2019-03-19T00:39:06.216Z,57.40
2019-03-19T00:39:44.723Z,57.10
2019-03-19T00:40:23.180Z,57.30
2019-03-19T00:41:02.286Z,57.40
2019-03-19T00:41:41.446Z,57.60
2019-03-19T00:42:20.445Z,57.70
2019-03-19T00:42:59.449Z,58.00
2019-03-19T00:43:38.805Z,58.00
2019-03-19T00:44:18.324Z,58.30
2019-03-19T00:44:56.787Z,58.30
2019-03-19T00:45:35.469Z,58.40
2019-03-19T00:46:14.500Z,58.70
2019-03-19T00:46:53.535Z,58.70
2019-03-19T00:47:32.684Z,59.20
2019-03-19T00:48:11.648Z,59.30
2019-03-19T00:48:50.528Z,59.50
2019-03-19T00:49:29.675Z,59.70
2019-03-19T00:50:08.328Z,60.10
2019-03-19T00:50:46.831Z,59.60
2019-03-19T00:51:25.345Z,60.20
2019-03-19T00:52:04.458Z,60.20
2019-03-19T00:52:43.532Z,61.00
2019-03-19T00:53:23.277Z,61.10
2019-03-19T00:54:02.147Z,61.50
2019-03-19T00:54:41.421Z,61.20
2019-03-19T00:55:20.413Z,61.20
2019-03-19T00:55:58.985Z,61.50
2019-03-19T00:56:37.633Z,61.60
2019-03-19T00:57:16.532Z,61.70
2019-03-19T00:57:55.138Z,62.00
2019-03-19T00:58:33.931Z,62.10
2019-03-19T00:59:12.728Z,62.00
2019-03-19T00:59:51.899Z,62.20
2019-03-19T01:00:31.026Z,62.20
2019-03-19T01:01:10.545Z,62.30
2019-03-19T01:01:51.581Z,62.30
2019-03-19T01:02:30.120Z,62.30
2019-03-19T01:03:09.155Z,62.60
2019-03-19T01:03:48.388Z,62.60
2019-03-19T01:04:27.232Z,62.60
2019-03-19T01:05:05.993Z,62.50
2019-03-19T01:05:45.122Z,62.80
2019-03-19T01:06:23.659Z,62.80
2019-03-19T01:07:03.422Z,63.00
2019-03-19T01:07:42.716Z,63.10
2019-03-19T01:08:21.612Z,63.30
2019-03-19T01:09:00.274Z,63.20
2019-03-19T01:09:38.756Z,63.20
2019-03-19T01:10:17.814Z,63.20
2019-03-19T01:10:56.790Z,63.40
2019-03-19T01:11:35.309Z,63.40
2019-03-19T01:12:13.770Z,63.10
2019-03-19T01:12:52.295Z,63.20
2019-03-19T01:13:30.763Z,63.20
2019-03-19T01:14:09.872Z,63.20
2019-03-19T01:14:49.022Z,63.50
2019-03-19T01:15:27.701Z,63.40
2019-03-19T01:16:06.713Z,63.50
2019-03-19T01:16:45.662Z,63.50
2019-03-19T01:17:24.985Z,63.70
2019-03-19T01:18:04.163Z,63.50
2019-03-19T01:18:43.637Z,63.60
2019-03-19T01:19:23.011Z,63.90
2019-03-19T01:20:01.522Z,63.90
2019-03-19T01:20:40.048Z,63.90
2019-03-19T01:21:18.618Z,64.10
2019-03-19T01:21:57.380Z,63.80
2019-03-19T01:22:36.493Z,64.20
2019-03-19T01:23:15.261Z,64.30
2019-03-19T01:23:54.264Z,64.20
2019-03-19T01:24:34.047Z,64.50
2019-03-19T01:25:14.184Z,64.20
2019-03-19T01:25:55.632Z,64.50
2019-03-19T01:26:34.056Z,64.40
2019-03-19T01:27:13.162Z,64.40
2019-03-19T01:27:52.448Z,64.60
2019-03-19T01:28:31.382Z,64.60
2019-03-19T01:29:10.053Z,65.20
2019-03-19T01:29:48.632Z,64.70
2019-03-19T01:30:27.081Z,64.70
2019-03-19T01:31:06.238Z,64.80
2019-03-19T01:31:45.259Z,64.80
2019-03-19T01:32:24.287Z,64.90
2019-03-19T01:33:02.874Z,65.00
2019-03-19T01:33:41.360Z,65.10
2019-03-19T01:34:19.922Z,65.70
2019-03-19T01:34:58.538Z,65.30
2019-03-19T01:35:37.026Z,65.10
2019-03-19T01:36:16.516Z,65.00
2019-03-19T01:36:54.965Z,65.20
2019-03-19T01:37:34.188Z,65.20
2019-03-19T01:38:12.844Z,65.00
2019-03-19T01:38:51.340Z,65.70
2019-03-19T01:39:30.007Z,65.50
2019-03-19T01:40:08.792Z,65.60
2019-03-19T01:40:47.984Z,65.50
2019-03-19T01:41:27.056Z,65.60
2019-03-19T01:42:06.109Z,65.30
2019-03-19T01:42:45.189Z,65.70
2019-03-19T01:43:24.418Z,65.60
2019-03-19T01:44:03.789Z,65.90
2019-03-19T01:44:42.282Z,65.80
2019-03-19T01:45:20.854Z,65.90
2019-03-19T01:45:59.378Z,65.70
2019-03-19T01:46:38.454Z,65.60
2019-03-19T01:47:17.358Z,65.80
2019-03-19T01:47:56.310Z,65.90
2019-03-19T01:48:35.322Z,65.80
2019-03-19T01:49:13.883Z,66.00
2019-03-19T01:49:52.807Z,66.40
2019-03-19T01:50:32.213Z,66.30
2019-03-19T01:51:10.900Z,66.50
2019-03-19T01:51:49.743Z,66.40
2019-03-19T01:52:28.284Z,66.60
2019-03-19T01:53:06.748Z,66.60
2019-03-19T01:53:45.393Z,66.80
2019-03-19T01:54:23.985Z,66.80
2019-03-19T01:55:02.975Z,67.00
2019-03-19T01:55:41.426Z,67.20
2019-03-19T01:56:20.369Z,67.40
2019-03-19T01:57:00.430Z,67.60
2019-03-19T01:57:39.504Z,67.90
2019-03-19T01:58:18.419Z,68.10
2019-03-19T01:58:57.353Z,68.50
2019-03-19T01:59:36.981Z,68.40
2019-03-19T02:00:16.143Z,69.00
2019-03-19T02:00:54.679Z,69.10
2019-03-19T02:01:33.119Z,69.00
2019-03-19T02:02:11.855Z,69.80
2019-03-19T02:02:50.864Z,70.10
2019-03-19T02:03:29.805Z,70.00
2019-03-19T02:04:09.307Z,71.10
2019-03-19T02:04:48.021Z,70.30
2019-03-19T02:05:27.243Z,70.90
2019-03-19T02:06:06.629Z,70.40
2019-03-19T02:06:45.961Z,71.00
2019-03-19T02:07:24.622Z,71.30
2019-03-19T02:08:04.743Z,71.20
2019-03-19T02:08:43.519Z,71.50
2019-03-19T02:09:23.015Z,71.60
2019-03-19T02:10:01.613Z,72.00
2019-03-19T02:10:40.221Z,72.20
2019-03-19T02:11:19.465Z,72.10
2019-03-19T02:11:58.539Z,73.00
2019-03-19T02:12:37.581Z,73.00
2019-03-19T02:13:16.659Z,72.90
2019-03-19T02:13:55.358Z,73.10
2019-03-19T02:14:33.891Z,73.30
2019-03-19T02:15:13.421Z,73.50
2019-03-19T02:15:52.144Z,73.60
2019-03-19T02:16:31.303Z,73.00
2019-03-19T02:17:12.549Z,73.60
2019-03-19T02:17:51.611Z,74.20
2019-03-19T02:18:30.641Z,73.90
2019-03-19T02:19:09.324Z,73.70
2019-03-19T02:19:48.546Z,73.40
2019-03-19T02:20:27.066Z,74.00
2019-03-19T02:21:05.671Z,74.00
2019-03-19T02:21:44.213Z,74.00
2019-03-19T02:22:22.719Z,74.00
2019-03-19T02:23:01.347Z,74.00
2019-03-19T02:23:40.181Z,74.20
2019-03-19T02:24:19.221Z,74.30
2019-03-19T02:24:58.595Z,73.40
2019-03-19T02:25:37.562Z,74.20
2019-03-19T02:26:17.146Z,74.50
2019-03-19T02:26:56.393Z,74.30
2019-03-19T02:27:34.897Z,74.60
2019-03-19T02:28:13.489Z,74.00
2019-03-19T02:28:52.229Z,74.30
2019-03-19T02:29:31.097Z,75.00
2019-03-19T02:30:10.924Z,75.10
2019-03-19T02:30:49.881Z,75.30
2019-03-19T02:31:29.024Z,74.80
2019-03-19T02:32:07.933Z,74.50
2019-03-19T02:32:47.135Z,74.50
2019-03-19T02:33:26.215Z,74.90
2019-03-19T02:34:05.422Z,74.90
2019-03-19T02:34:43.918Z,74.70
2019-03-19T02:35:22.626Z,74.80
2019-03-19T02:36:01.174Z,75.20
2019-03-19T02:36:40.371Z,75.30
2019-03-19T02:37:28.753Z,75.30
2019-03-19T02:38:07.340Z,75.60
2019-03-19T02:38:45.907Z,75.70
2019-03-19T02:39:24.417Z,75.80
2019-03-19T02:40:03.437Z,75.80
2019-03-19T02:40:42.549Z,75.80
2019-03-19T02:41:21.734Z,75.80
2019-03-19T02:42:01.079Z,75.70
2019-03-19T02:42:40.226Z,75.90
2019-03-19T02:43:22.562Z,76.00
2019-03-19T02:43:59.728Z,76.20
2019-03-19T02:44:38.923Z,76.20
2019-03-19T02:45:18.242Z,76.20
2019-03-19T02:45:56.724Z,76.40
2019-03-19T02:46:35.241Z,76.50
2019-03-19T02:47:13.875Z,76.60
2019-03-19T02:47:52.714Z,76.20
2019-03-19T02:48:31.474Z,76.80
2019-03-19T02:49:10.460Z,75.90
2019-03-19T02:49:48.917Z,76.70
2019-03-19T02:50:30.516Z,76.60
2019-03-19T02:51:10.134Z,76.70
2019-03-19T02:51:49.561Z,76.70
2019-03-19T02:52:28.618Z,76.60
2019-03-19T02:53:07.643Z,76.50
2019-03-19T02:53:46.567Z,76.60
2019-03-19T02:54:25.338Z,76.80
2019-03-19T02:55:04.036Z,77.00
2019-03-19T02:55:42.676Z,77.10
2019-03-19T02:56:32.345Z,76.40
2019-03-19T02:57:01.411Z,77.00
2019-03-19T02:57:40.515Z,77.30
2019-03-19T02:58:19.774Z,77.70
2019-03-19T02:58:58.315Z,77.50
2019-03-19T02:59:36.801Z,77.60
2019-03-19T03:00:15.367Z,77.30
2019-03-19T03:00:55.025Z,77.40
2019-03-19T03:01:34.050Z,77.20
2019-03-19T03:02:12.678Z,77.60
2019-03-19T03:02:51.608Z,77.90
2019-03-19T03:03:30.214Z,78.30
2019-03-19T03:04:09.216Z,77.20
2019-03-19T03:04:48.321Z,77.40
2019-03-19T03:05:27.957Z,77.80
2019-03-19T03:06:06.695Z,77.10
2019-03-19T03:06:45.549Z,77.80
2019-03-19T03:07:24.793Z,77.80
2019-03-19T03:08:03.840Z,77.40
2019-03-19T03:08:42.895Z,77.70
2019-03-19T03:09:22.079Z,77.80
2019-03-19T03:10:01.547Z,77.30
2019-03-19T03:10:40.033Z,77.30
2019-03-19T03:11:18.673Z,77.50
2019-03-19T03:11:57.242Z,77.20
2019-03-19T03:12:35.893Z,77.30
2019-03-19T03:13:14.404Z,76.70
2019-03-19T03:13:53.551Z,77.30
2019-03-19T03:14:32.548Z,77.60
2019-03-19T03:15:11.816Z,77.70
2019-03-19T03:15:50.915Z,77.40
2019-03-19T03:16:30.314Z,77.70
2019-03-19T03:17:08.779Z,77.40
2019-03-19T03:17:48.017Z,77.20
2019-03-19T03:18:26.629Z,76.90
2019-03-19T03:19:05.254Z,76.70
2019-03-19T03:19:44.294Z,76.70
2019-03-19T03:20:22.808Z,76.70
2019-03-19T03:21:01.374Z,76.50
2019-03-19T03:21:40.616Z,76.70
2019-03-19T03:22:19.394Z,77.10
2019-03-19T03:22:57.901Z,77.30
2019-03-19T03:23:36.595Z,76.20
2019-03-19T03:24:15.673Z,76.60
2019-03-19T03:24:54.561Z,76.20
2019-03-19T03:25:33.904Z,76.30
2019-03-19T03:26:12.512Z,75.90
2019-03-19T03:26:51.062Z,75.90
2019-03-19T03:27:30.405Z,75.90
2019-03-19T03:28:09.279Z,75.80
2019-03-19T03:28:47.837Z,75.70
2019-03-19T03:29:26.839Z,75.60
2019-03-19T03:30:06.040Z,75.20
2019-03-19T03:30:45.435Z,75.00
2019-03-19T03:31:24.373Z,74.70
2019-03-19T03:32:03.693Z,74.60
2019-03-19T03:32:42.915Z,74.60
2019-03-19T03:33:22.020Z,74.60
2019-03-19T03:34:01.378Z,74.30
2019-03-19T03:34:39.889Z,74.40
2019-03-19T03:35:18.499Z,74.40
2019-03-19T03:35:57.367Z,73.80
2019-03-19T03:36:35.917Z,74.10
2019-03-19T03:37:15.019Z,74.00
2019-03-19T03:37:54.062Z,74.90
2019-03-19T03:38:33.262Z,73.90
2019-03-19T03:39:13.182Z,74.00
2019-03-19T03:39:52.330Z,73.60
2019-03-19T03:40:31.683Z,73.70
2019-03-19T03:41:10.196Z,73.50
2019-03-19T03:41:48.867Z,73.70
2019-03-19T03:42:27.935Z,73.60
2019-03-19T03:43:07.172Z,73.50
2019-03-19T03:43:46.219Z,73.10
2019-03-19T03:44:25.109Z,73.40
2019-03-19T03:45:03.814Z,73.40
2019-03-19T03:45:42.931Z,73.10
2019-03-19T03:46:21.754Z,73.10
2019-03-19T03:47:00.327Z,73.20
2019-03-19T03:47:38.750Z,73.20
2019-03-19T03:48:17.633Z,73.90
2019-03-19T03:48:56.116Z,72.90
2019-03-19T03:49:35.148Z,73.00
2019-03-19T03:50:14.503Z,72.70
2019-03-19T03:50:53.721Z,72.70
2019-03-19T03:51:32.259Z,72.60
2019-03-19T03:52:11.606Z,72.40
2019-03-19T03:52:50.123Z,72.50
2019-03-19T03:53:28.653Z,72.50
2019-03-19T03:54:07.772Z,72.20
2019-03-19T03:54:48.166Z,72.20
2019-03-19T03:55:27.506Z,72.10
2019-03-19T03:56:06.590Z,72.00
2019-03-19T03:56:46.294Z,72.20
2019-03-19T03:57:25.624Z,72.00
2019-03-19T03:58:04.586Z,71.90
2019-03-19T03:58:43.380Z,71.70
2019-03-19T03:59:22.706Z,71.50
2019-03-19T04:00:01.255Z,71.30
2019-03-19T04:00:40.313Z,71.00
2019-03-19T04:01:37.301Z,71.10
2019-03-19T04:02:16.426Z,70.70
2019-03-19T04:02:55.906Z,70.90
2019-03-19T04:03:35.172Z,70.60
2019-03-19T04:04:13.869Z,70.60
2019-03-19T04:04:53.514Z,70.50
2019-03-19T04:05:32.476Z,70.50
2019-03-19T04:06:11.057Z,70.10
2019-03-19T04:06:50.290Z,70.20
2019-03-19T04:07:29.066Z,70.00
2019-03-19T04:08:07.953Z,69.90
2019-03-19T04:08:47.153Z,69.80
2019-03-19T04:09:26.260Z,69.70
2019-03-19T04:10:05.522Z,69.40
2019-03-19T04:10:44.093Z,69.60
2019-03-19T04:11:22.623Z,69.40
2019-03-19T04:12:01.238Z,69.30
2019-03-19T04:12:40.168Z,69.20
2019-03-19T04:13:18.788Z,68.90
2019-03-19T04:13:57.362Z,68.90
2019-03-19T04:14:36.204Z,69.10
2019-03-19T04:15:15.763Z,68.70
2019-03-19T04:15:54.895Z,68.70
2019-03-19T04:16:34.161Z,68.60
2019-03-19T04:17:12.826Z,68.60
2019-03-19T04:17:51.548Z,68.70
2019-03-19T04:18:30.416Z,68.30
2019-03-19T04:19:09.550Z,68.20
2019-03-19T04:19:48.821Z,68.50
2019-03-19T04:20:28.494Z,68.30
2019-03-19T04:21:07.907Z,68.30
2019-03-19T04:21:47.130Z,68.00
2019-03-19T04:22:25.734Z,67.90
2019-03-19T04:23:04.858Z,68.00
2019-03-19T04:23:43.439Z,67.90
2019-03-19T04:24:22.517Z,67.70
2019-03-19T04:25:01.371Z,67.60
2019-03-19T04:25:40.227Z,67.70
2019-03-19T04:26:18.982Z,67.50
2019-03-19T04:26:58.251Z,67.40
2019-03-19T04:27:40.063Z,67.20
2019-03-19T04:28:17.525Z,67.30
2019-03-19T04:28:56.636Z,67.40
2019-03-19T04:29:35.903Z,67.10
2019-03-19T04:30:14.554Z,67.10
2019-03-19T04:30:53.038Z,67.30
2019-03-19T04:31:31.746Z,67.20
2019-03-19T04:32:10.965Z,66.80
2019-03-19T04:32:49.538Z,67.10
2019-03-19T04:33:30.670Z,66.80
2019-03-19T04:34:10.027Z,67.60
2019-03-19T04:34:49.378Z,66.90
2019-03-19T04:35:29.338Z,66.70
2019-03-19T04:36:08.534Z,66.80
2019-03-19T04:36:47.122Z,66.80
2019-03-19T04:37:25.887Z,66.50
2019-03-19T04:38:04.416Z,66.60
2019-03-19T04:38:42.832Z,66.60
2019-03-19T04:39:21.577Z,66.40
2019-03-19T04:40:00.659Z,66.50
2019-03-19T04:40:39.759Z,66.40
2019-03-19T04:41:19.022Z,66.50
2019-03-19T04:42:00.140Z,66.40
2019-03-19T04:42:39.345Z,66.40
2019-03-19T04:43:18.286Z,66.10
2019-03-19T04:43:57.318Z,66.20
2019-03-19T04:44:36.631Z,66.20
2019-03-19T04:45:15.335Z,66.10
2019-03-19T04:45:53.900Z,66.00
2019-03-19T04:46:33.253Z,65.90
2019-03-19T04:47:11.891Z,65.70
2019-03-19T04:47:51.110Z,65.60
2019-03-19T04:48:30.258Z,65.50
2019-03-19T04:49:09.310Z,65.60
2019-03-19T04:49:48.367Z,65.60
2019-03-19T04:50:26.935Z,65.40
2019-03-19T04:51:05.485Z,65.30
2019-03-19T04:51:44.790Z,65.30
2019-03-19T04:52:23.311Z,65.30
2019-03-19T04:53:02.375Z,65.20
2019-03-19T04:53:41.847Z,65.20
2019-03-19T04:54:20.453Z,65.20
2019-03-19T04:54:59.787Z,65.10
2019-03-19T04:55:38.308Z,65.10
2019-03-19T04:56:16.782Z,65.10
2019-03-19T04:56:55.971Z,65.00
2019-03-19T04:57:35.241Z,64.90
2019-03-19T04:58:14.825Z,64.90
2019-03-19T04:58:53.892Z,65.00
2019-03-19T04:59:32.696Z,64.80
2019-03-19T05:00:12.048Z,64.90
2019-03-19T05:00:50.902Z,64.90
2019-03-19T05:01:30.227Z,64.90
2019-03-19T05:02:09.616Z,64.80
2019-03-19T05:02:49.440Z,64.70
2019-03-19T05:03:28.404Z,64.70
2019-03-19T05:04:07.095Z,64.80
2019-03-19T05:04:45.588Z,64.60
2019-03-19T05:05:24.387Z,64.60
2019-03-19T05:06:04.456Z,64.60
2019-03-19T05:06:43.649Z,64.60
2019-03-19T05:07:22.704Z,64.50
2019-03-19T05:08:02.196Z,64.50
2019-03-19T05:08:41.274Z,64.50
2019-03-19T05:09:19.865Z,64.40
2019-03-19T05:09:59.142Z,64.30
2019-03-19T05:10:38.433Z,64.40
2019-03-19T05:11:18.066Z,64.40
2019-03-19T05:11:57.495Z,64.30
2019-03-19T05:12:35.980Z,64.40
2019-03-19T05:13:14.719Z,64.40
2019-03-19T05:13:53.475Z,64.30
2019-03-19T05:14:32.421Z,64.20
2019-03-19T05:15:11.386Z,64.30
2019-03-19T05:15:50.435Z,64.10
2019-03-19T05:16:32.047Z,63.80
2019-03-19T05:17:11.487Z,64.10
2019-03-19T05:17:50.776Z,64.20
2019-03-19T05:18:33.522Z,64.20
2019-03-19T05:19:12.846Z,65.00
2019-03-19T05:19:51.635Z,64.10
2019-03-19T05:20:31.445Z,63.80
2019-03-19T05:21:10.608Z,64.10
2019-03-19T05:21:50.220Z,63.90
2019-03-19T05:22:28.783Z,64.10
2019-03-19T05:23:07.366Z,63.90
2019-03-19T05:23:46.052Z,64.10
2019-03-19T05:24:24.576Z,63.90
2019-03-19T05:25:03.751Z,63.80
2019-03-19T05:25:42.923Z,63.80
2019-03-19T05:26:22.475Z,63.80
2019-03-19T05:27:00.966Z,63.80
2019-03-19T05:27:40.093Z,63.90
2019-03-19T05:28:18.787Z,63.80
2019-03-19T05:28:57.416Z,63.60
2019-03-19T05:29:36.122Z,63.70
2019-03-19T05:30:15.277Z,63.80
2019-03-19T05:30:53.744Z,63.80
2019-03-19T05:31:33.158Z,64.50
2019-03-19T05:32:11.860Z,63.60
2019-03-19T05:32:50.932Z,63.70
2019-03-19T05:33:29.430Z,63.40
2019-03-19T05:34:07.953Z,63.50
2019-03-19T05:34:46.655Z,63.50
2019-03-19T05:35:25.804Z,63.50
2019-03-19T05:36:04.746Z,63.50
2019-03-19T05:36:44.591Z,63.60
2019-03-19T05:37:23.315Z,63.30
2019-03-19T05:38:02.614Z,63.30
2019-03-19T05:38:42.228Z,63.30
2019-03-19T05:39:21.439Z,63.20
2019-03-19T05:40:00.535Z,63.20
2019-03-19T05:40:39.217Z,63.20
2019-03-19T05:41:17.825Z,63.30
2019-03-19T05:41:56.626Z,63.20
2019-03-19T05:42:35.651Z,63.20
2019-03-19T05:43:14.550Z,63.20
2019-03-19T05:43:53.717Z,63.20
2019-03-19T05:44:32.756Z,63.20
2019-03-19T05:45:12.681Z,63.20
2019-03-19T05:45:51.328Z,63.10
2019-03-19T05:46:29.993Z,63.10
2019-03-19T05:47:08.603Z,63.00
2019-03-19T05:47:47.404Z,63.00
2019-03-19T05:48:26.269Z,63.10
2019-03-19T05:49:04.808Z,63.20
2019-03-19T05:49:43.705Z,63.20
2019-03-19T05:50:22.873Z,63.10
2019-03-19T05:51:02.233Z,63.30
2019-03-19T05:51:40.721Z,63.00
2019-03-19T05:52:19.361Z,63.00
2019-03-19T05:52:57.973Z,62.80
2019-03-19T05:53:37.093Z,63.00
2019-03-19T05:54:16.300Z,62.90
2019-03-19T05:54:55.486Z,63.20
2019-03-19T05:55:34.693Z,63.10
2019-03-19T05:56:13.309Z,62.90
2019-03-19T05:56:52.059Z,62.90
2019-03-19T05:57:30.597Z,62.90
2019-03-19T05:58:09.105Z,62.80
2019-03-19T05:58:48.577Z,63.00
2019-03-19T05:59:27.404Z,62.90
2019-03-19T06:00:06.744Z,62.80
2019-03-19T06:00:46.411Z,62.80
2019-03-19T06:01:25.776Z,62.70
2019-03-19T06:02:05.004Z,62.80
2019-03-19T06:02:43.565Z,62.80
2019-03-19T06:03:22.067Z,62.80
2019-03-19T06:04:01.627Z,63.00
2019-03-19T06:04:40.551Z,62.80
2019-03-19T06:05:21.184Z,62.70
2019-03-19T06:06:00.377Z,63.10
2019-03-19T06:06:38.874Z,62.60
2019-03-19T06:07:17.712Z,62.70
2019-03-19T06:07:56.687Z,62.60
2019-03-19T06:08:35.713Z,62.80
2019-03-19T06:09:14.876Z,62.90
2019-03-19T06:09:54.200Z,63.90
2019-03-19T06:10:32.731Z,62.80
2019-03-19T06:11:13.657Z,62.80
2019-03-19T06:11:53.569Z,63.00
2019-03-19T06:12:32.436Z,62.90
2019-03-19T06:13:10.964Z,63.00
2019-03-19T06:13:52.362Z,63.00
2019-03-19T06:14:31.527Z,62.80
2019-03-19T06:15:10.415Z,63.20
2019-03-19T06:15:49.139Z,62.90
2019-03-19T06:16:29.352Z,62.90
2019-03-19T06:17:08.266Z,63.00
2019-03-19T06:17:46.980Z,62.80
2019-03-19T06:18:34.750Z,63.20
2019-03-19T06:19:06.741Z,63.00
2019-03-19T06:19:45.907Z,63.00
2019-03-19T06:20:25.067Z,62.70
2019-03-19T06:21:04.068Z,63.00
2019-03-19T06:21:42.872Z,64.00
2019-03-19T06:22:21.336Z,63.50
2019-03-19T06:23:00.248Z,63.10
2019-03-19T06:23:38.799Z,62.90
2019-03-19T06:24:17.874Z,62.90
2019-03-19T06:24:56.970Z,63.30
2019-03-19T06:25:55.633Z,63.40
2019-03-19T06:26:34.297Z,63.10
2019-03-19T06:27:13.227Z,63.10
2019-03-19T06:27:59.886Z,63.10
2019-03-19T06:28:31.751Z,63.20
2019-03-19T06:29:10.636Z,63.00
2019-03-19T06:29:49.427Z,63.50
2019-03-19T06:30:29.732Z,63.40
2019-03-19T06:31:08.877Z,63.20
2019-03-19T06:31:48.399Z,63.50
2019-03-19T06:32:27.512Z,63.70
2019-03-19T06:33:06.750Z,63.20
2019-03-19T06:33:45.453Z,63.40
2019-03-19T06:34:25.007Z,63.50
2019-03-19T06:35:03.602Z,63.40
2019-03-19T06:35:42.107Z,63.50
2019-03-19T06:36:20.645Z,63.50
2019-03-19T06:37:00.029Z,63.70
2019-03-19T06:37:38.654Z,64.00
2019-03-19T06:38:17.281Z,63.70
2019-03-19T06:38:57.268Z,63.90
2019-03-19T06:39:35.761Z,63.50
2019-03-19T06:40:15.858Z,64.20
2019-03-19T06:40:54.393Z,63.60
2019-03-19T06:41:33.540Z,63.60
2019-03-19T06:42:12.797Z,63.70
2019-03-19T06:42:51.283Z,63.70
2019-03-19T06:43:29.798Z,63.40
2019-03-19T06:44:08.382Z,63.40
2019-03-19T06:44:46.923Z,63.40
2019-03-19T06:45:26.133Z,64.00
2019-03-19T06:46:04.602Z,63.50
2019-03-19T06:46:43.992Z,64.20
2019-03-19T06:47:22.946Z,63.90
2019-03-19T06:48:01.925Z,63.80
2019-03-19T06:48:41.156Z,63.50
2019-03-19T06:49:20.299Z,63.90
2019-03-19T06:49:59.402Z,63.90
2019-03-19T06:50:45.164Z,64.10
2019-03-19T06:51:19.260Z,64.00
2019-03-19T06:51:57.881Z,63.80
2019-03-19T06:52:36.605Z,64.40
2019-03-19T06:53:15.913Z,64.00
2019-03-19T06:53:56.348Z,64.20
2019-03-19T06:54:35.551Z,64.10
2019-03-19T06:55:16.871Z,64.10
2019-03-19T06:55:55.787Z,64.00
2019-03-19T06:56:34.658Z,64.10
2019-03-19T06:57:13.298Z,64.20
2019-03-19T06:57:52.371Z,64.20
2019-03-19T06:58:31.676Z,64.40
2019-03-19T06:59:12.217Z,63.90
2019-03-19T06:59:50.946Z,63.90
2019-03-19T07:00:30.164Z,63.70
2019-03-19T07:01:09.007Z,64.20
2019-03-19T07:01:48.185Z,64.50
2019-03-19T07:02:27.880Z,64.20
2019-03-19T07:03:06.397Z,64.20
2019-03-19T07:03:45.438Z,64.00
2019-03-19T07:04:23.821Z,64.00
2019-03-19T07:05:02.364Z,64.00
2019-03-19T07:05:41.499Z,63.90
2019-03-19T07:06:20.069Z,63.90
2019-03-19T07:06:58.685Z,63.90
2019-03-19T07:07:37.770Z,64.20
2019-03-19T07:08:16.489Z,64.10
2019-03-19T07:08:55.532Z,64.00
2019-03-19T07:09:34.122Z,63.90
2019-03-19T07:10:14.028Z,63.90
2019-03-19T07:10:56.322Z,63.60
2019-03-19T07:11:35.416Z,64.10
2019-03-19T07:12:14.603Z,63.70
2019-03-19T07:12:53.161Z,64.30
2019-03-19T07:13:32.214Z,64.00
2019-03-19T07:14:11.258Z,63.90
2019-03-19T07:14:50.482Z,63.90
2019-03-19T07:15:30.734Z,63.80
2019-03-19T07:16:10.090Z,63.70
2019-03-19T07:16:49.246Z,63.70
2019-03-19T07:17:28.254Z,63.70
2019-03-19T07:18:07.117Z,63.60
2019-03-19T07:18:45.791Z,63.60
2019-03-19T07:19:24.757Z,63.50
2019-03-19T07:20:03.950Z,63.80
2019-03-19T07:20:42.772Z,63.20
2019-03-19T07:21:21.936Z,63.50
2019-03-19T07:22:01.226Z,63.30
2019-03-19T07:22:40.760Z,63.30
2019-03-19T07:23:20.085Z,63.50
2019-03-19T07:23:59.117Z,63.50
2019-03-19T07:24:37.723Z,63.40
2019-03-19T07:25:16.231Z,63.50
2019-03-19T07:25:55.143Z,63.50
2019-03-19T07:26:52.234Z,63.20
2019-03-19T07:27:31.243Z,63.30
2019-03-19T07:28:21.323Z,63.50
2019-03-19T07:28:51.072Z,63.50
2019-03-19T07:29:30.228Z,63.30
2019-03-19T07:30:10.404Z,63.60
2019-03-19T07:30:50.099Z,63.70
2019-03-19T07:31:31.098Z,63.20
2019-03-19T07:32:08.587Z,63.50
2019-03-19T07:32:47.280Z,63.20
2019-03-19T07:33:25.840Z,63.00
2019-03-19T07:34:04.749Z,63.20
2019-03-19T07:34:43.811Z,63.10
2019-03-19T07:35:23.001Z,63.30
2019-03-19T07:36:02.494Z,62.90
2019-03-19T07:36:42.923Z,63.00
2019-03-19T07:37:22.123Z,63.10
2019-03-19T07:38:01.170Z,62.80
2019-03-19T07:38:40.293Z,62.80
2019-03-19T07:39:19.705Z,62.90
2019-03-19T07:39:58.218Z,62.80
2019-03-19T07:40:36.715Z,62.70
2019-03-19T07:41:17.529Z,62.70
2019-03-19T07:41:55.628Z,62.80
2019-03-19T07:42:34.675Z,63.50
2019-03-19T07:43:13.331Z,62.80
2019-03-19T07:43:52.375Z,62.60
2019-03-19T07:44:31.553Z,62.80
2019-03-19T07:45:11.397Z,62.80
2019-03-19T07:45:49.941Z,62.60
2019-03-19T07:46:29.694Z,62.60
2019-03-19T07:47:08.188Z,62.60
2019-03-19T07:47:46.689Z,62.60
2019-03-19T07:48:25.248Z,62.50
2019-03-19T07:49:03.885Z,62.30
2019-03-19T07:49:42.477Z,62.50
2019-03-19T07:50:21.017Z,62.10
2019-03-19T07:51:00.460Z,62.10
2019-03-19T07:51:38.978Z,62.90
2019-03-19T07:52:18.265Z,62.00
2019-03-19T07:52:56.692Z,61.90
2019-03-19T07:53:35.372Z,62.00
2019-03-19T07:54:14.605Z,62.00
2019-03-19T07:54:53.628Z,61.90
2019-03-19T07:55:32.705Z,61.90
2019-03-19T07:56:11.645Z,61.70
2019-03-19T07:56:50.132Z,62.40
2019-03-19T07:57:29.573Z,61.70
2019-03-19T07:58:09.202Z,61.80
2019-03-19T07:58:48.291Z,61.70
2019-03-19T07:59:26.891Z,61.80
2019-03-19T08:00:05.932Z,61.60
2019-03-19T08:00:44.825Z,61.50
2019-03-19T08:01:24.741Z,61.60
2019-03-19T08:02:03.586Z,61.60
2019-03-19T08:02:42.833Z,61.50
2019-03-19T08:03:23.249Z,61.50
2019-03-19T08:04:02.364Z,61.40
2019-03-19T08:04:41.105Z,61.40
2019-03-19T08:05:19.783Z,61.40
2019-03-19T08:05:58.266Z,61.50
2019-03-19T08:06:37.101Z,61.40
2019-03-19T08:07:16.180Z,61.40
2019-03-19T08:07:55.630Z,61.40
2019-03-19T08:08:34.526Z,61.40
2019-03-19T08:09:13.389Z,62.10
2019-03-19T08:09:52.718Z,61.50
2019-03-19T08:10:31.846Z,61.20
2019-03-19T08:11:13.104Z,61.20
2019-03-19T08:11:52.697Z,61.30
2019-03-19T08:12:33.541Z,61.30
2019-03-19T08:13:11.382Z,61.40
2019-03-19T08:13:50.033Z,61.50
2019-03-19T08:14:28.606Z,61.50
2019-03-19T08:15:07.863Z,61.50
2019-03-19T08:15:46.510Z,61.40
2019-03-19T08:16:27.689Z,61.60
2019-03-19T08:17:05.517Z,61.60
2019-03-19T08:17:44.224Z,61.30
2019-03-19T08:18:22.707Z,61.70
2019-03-19T08:19:01.896Z,61.60
2019-03-19T08:19:40.967Z,61.50
2019-03-19T08:20:20.229Z,61.30
2019-03-19T08:20:58.836Z,61.50
2019-03-19T08:21:38.146Z,61.30
2019-03-19T08:22:18.304Z,61.60
2019-03-19T08:22:57.485Z,61.40
2019-03-19T08:23:35.961Z,61.70
2019-03-19T08:24:14.485Z,61.70